Time;durP1;ratioP1;P1;durP2;ratioP2;P2;SDS_P1;SDS_P2;PMS_P1;PMS_P2;Temp;Humidity;BMP_temperature;BMP_pressure;BME280_temperature;BME280_humidity;BME280_pressure;Samples;Min_cycle;Max_cycle;Signal;HPM_P1;HPM_P2
2021/12/16 00:07:08;;;;;;;21.50;14.80;;;;;;;3.66;98.91;98308.06;5033172;28;20680;-72
2021/12/16 00:09:45;;;;;;;20.30;14.97;;;;;;;3.70;99.10;98306.19;5028018;28;20219;-72
2021/12/16 00:29:22;;;;;;;17.67;12.80;;;;;;;3.84;97.22;98301.25;5033272;28;20348;-70
2021/12/16 00:31:54;;;;;;;19.23;13.70;;;;;;;3.73;96.52;98309.53;5039532;28;20212;-73
2021/12/16 00:34:24;;;;;;;17.83;13.60;;;;;;;3.60;97.01;98305.69;5038998;28;20218;-71
2021/12/16 00:36:52;;;;;;;17.80;12.83;;;;;;;3.56;96.46;98309.34;5042829;28;20632;-71
2021/12/16 00:39:24;;;;;;;15.00;12.33;;;;;;;3.63;97.54;98310.81;5046280;28;20286;-72
2021/12/16 00:41:56;;;;;;;16.50;12.60;;;;;;;3.60;97.13;98300.47;5042276;28;20211;-72
2021/12/16 00:44:48;;;;;;;15.27;12.23;;;;;;;3.63;97.49;98304.72;5043270;28;20188;-69
2021/12/16 00:47:27;;;;;;;15.57;12.60;;;;;;;3.57;97.60;98300.59;5024177;28;20291;-72
2021/12/16 00:50:03;;;;;;;15.07;12.23;;;;;;;3.56;98.33;98301.50;5045242;28;20219;-70
2021/12/16 00:55:26;;;;;;;16.40;12.17;;;;;;;3.60;97.85;98303.09;5016691;28;20218;-70
2021/12/16 00:57:53;;;;;;;13.77;11.40;;;;;;;3.60;98.19;98308.31;5020369;28;20232;-71
2021/12/16 01:00:24;;;;;;;15.07;11.83;;;;;;;3.60;98.55;98299.63;5038325;28;20250;-72
2021/12/16 01:03:01;;;;;;;15.87;11.83;;;;;;;3.59;98.07;98303.13;5043060;28;20222;-70
2021/12/16 01:08:30;;;;;;;13.73;11.80;;;;;;;3.48;97.58;98290.47;5030968;28;20239;-71
2021/12/16 01:35:50;;;;;;;13.07;10.77;;;;;;;3.44;98.65;98288.88;5025475;28;20265;-71
2021/12/16 01:39:01;;;;;;;15.27;10.73;;;;;;;3.48;99.13;98286.09;5035519;28;20772;-71
2021/12/16 01:49:51;;;;;;;13.83;10.07;;;;;;;3.48;98.25;98285.25;5035703;28;20233;-70
2021/12/16 01:55:24;;;;;;;14.67;10.53;;;;;;;3.46;97.82;98282.69;5020554;28;20200;-71
2021/12/16 01:57:55;;;;;;;11.60;9.77;;;;;;;3.68;96.53;98280.09;5034634;28;20301;-72
2021/12/16 02:00:29;;;;;;;12.83;9.60;;;;;;;3.75;95.21;98281.56;5034800;28;20210;-72
2021/12/16 02:03:01;;;;;;;11.73;9.47;;;;;;;3.62;95.14;98277.69;5035717;28;20207;-70
2021/12/16 02:05:40;;;;;;;11.70;9.37;;;;;;;3.75;94.92;98278.09;5034497;28;20623;-72
2021/12/16 02:08:21;;;;;;;10.80;9.70;;;;;;;3.56;94.79;98282.34;5036921;28;20272;-72
2021/12/16 02:11:00;;;;;;;12.00;10.17;;;;;;;3.55;94.85;98291.94;5057824;28;20171;-70
2021/12/16 02:13:44;;;;;;;13.13;10.67;;;;;;;3.40;95.77;98282.91;5058150;28;20196;-72
2021/12/16 02:33:06;;;;;;;12.47;9.10;;;;;;;3.30;95.23;98275.47;5021662;28;20618;-71
2021/12/16 02:35:35;;;;;;;11.50;9.50;;;;;;;3.36;96.17;98275.28;5023166;28;20218;-72
2021/12/16 02:38:07;;;;;;;12.33;9.33;;;;;;;3.35;95.74;98273.56;5035332;28;20247;-72
2021/12/16 02:40:35;;;;;;;10.70;8.43;;;;;;;3.37;95.33;98276.94;5030764;28;20639;-72
2021/12/16 02:43:20;;;;;;;9.90;8.27;;;;;;;3.34;95.03;98274.47;5018927;28;20328;-70
2021/12/16 02:48:32;;;;;;;11.43;8.47;;;;;;;3.31;95.18;98266.75;5034979;28;20276;-70
2021/12/16 02:51:00;;;;;;;11.07;9.13;;;;;;;3.26;94.80;98272.13;5027702;28;20290;-70
2021/12/16 02:53:29;;;;;;;11.30;9.20;;;;;;;3.26;94.58;98264.28;5033430;28;20219;-71
2021/12/16 02:55:55;;;;;;;9.27;8.17;;;;;;;3.21;94.22;98260.16;5035079;28;20200;-70
2021/12/16 02:58:22;;;;;;;10.83;8.73;;;;;;;3.29;94.68;98279.03;5034598;28;20658;-72
2021/12/16 03:00:52;;;;;;;12.17;9.20;;;;;;;3.30;94.56;98270.25;5028123;28;20210;-72
2021/12/16 03:03:19;;;;;;;11.50;9.00;;;;;;;3.22;94.28;98272.34;5036797;28;20200;-72
2021/12/16 03:05:45;;;;;;;10.40;8.60;;;;;;;3.21;94.54;98278.47;5035693;28;20294;-72
2021/12/16 03:08:11;;;;;;;9.90;8.20;;;;;;;3.12;93.94;98284.06;5036083;28;20208;-72
2021/12/16 03:13:27;;;;;;;9.07;7.93;;;;;;;3.10;93.84;98275.41;5049158;28;20204;-71
2021/12/16 03:16:06;;;;;;;10.90;8.37;;;;;;;3.04;94.17;98279.09;5060577;28;20180;-70
2021/12/16 03:18:41;;;;;;;10.30;8.23;;;;;;;3.04;94.30;98279.09;5061000;28;20175;-71
2021/12/16 03:21:16;;;;;;;8.70;7.80;;;;;;;3.06;95.08;98284.25;5052392;28;20203;-70
2021/12/16 03:23:57;;;;;;;11.17;8.10;;;;;;;3.01;94.57;98287.06;5038957;28;20210;-73
2021/12/16 03:26:54;;;;;;;10.47;8.57;;;;;;;3.07;95.24;98284.22;5038958;28;20206;-71
2021/12/16 03:35:01;;;;;;;10.73;8.20;;;;;;;3.11;95.00;98290.19;5036660;28;20615;-69
2021/12/16 03:37:29;;;;;;;8.97;7.37;;;;;;;3.05;94.07;98286.00;5026591;28;20273;-72
2021/12/16 03:39:58;;;;;;;8.93;7.83;;;;;;;3.04;93.84;98293.94;5033383;28;20211;-72
2021/12/16 03:42:29;;;;;;;9.03;7.37;;;;;;;3.03;93.83;98300.06;5038794;28;20221;-71
2021/12/16 03:45:00;;;;;;;9.70;8.47;;;;;;;2.94;93.61;98298.66;5038547;28;20213;-72
2021/12/16 03:47:37;;;;;;;8.57;7.60;;;;;;;2.92;93.49;98297.84;5038287;28;20534;-71
2021/12/16 03:50:07;;;;;;;10.87;7.47;;;;;;;2.89;93.93;98293.59;5024832;28;20211;-70
2021/12/16 03:52:34;;;;;;;10.33;8.20;;;;;;;2.98;94.53;98284.53;5027623;28;20204;-69
2021/12/16 03:55:01;;;;;;;8.80;7.40;;;;;;;2.96;93.80;98282.00;5035514;28;20224;-70
2021/12/16 03:57:31;;;;;;;10.23;8.33;;;;;;;2.97;94.69;98288.94;5037713;28;20226;-72
2021/12/16 03:59:57;;;;;;;10.90;9.00;;;;;;;2.77;94.04;98285.31;5032988;28;20290;-70
2021/12/16 04:02:27;;;;;;;10.20;7.87;;;;;;;2.84;95.14;98286.81;5029522;28;20208;-71
2021/12/16 04:04:53;;;;;;;11.07;8.63;;;;;;;2.88;95.00;98284.03;5037134;28;20250;-71
2021/12/16 04:07:22;;;;;;;9.90;8.57;;;;;;;2.89;94.61;98297.94;5037874;28;20218;-71
2021/12/16 04:09:50;;;;;;;9.83;8.83;;;;;;;2.84;94.12;98300.72;5034531;28;20695;-72
2021/12/16 04:12:20;;;;;;;11.03;8.43;;;;;;;2.84;94.27;98305.94;5033701;28;20210;-72
2021/12/16 04:14:49;;;;;;;10.63;9.10;;;;;;;2.83;94.34;98303.41;5037613;28;20242;-71
2021/12/16 04:17:17;;;;;;;12.33;8.63;;;;;;;2.88;94.10;98294.47;5037883;28;20211;-69
2021/12/16 04:19:43;;;;;;;9.57;8.53;;;;;;;2.88;94.41;98301.47;5028888;28;20210;-70
2021/12/16 04:22:16;;;;;;;11.57;9.17;;;;;;;2.90;94.89;98304.88;5036441;28;20206;-71
2021/12/16 04:24:43;;;;;;;9.63;8.43;;;;;;;2.98;94.27;98295.84;5026611;28;20227;-70
2021/12/16 04:27:10;;;;;;;9.10;7.97;;;;;;;3.03;94.11;98306.13;5047777;28;20218;-71
2021/12/16 04:29:37;;;;;;;10.27;8.47;;;;;;;2.98;93.72;98295.84;5053196;28;20218;-71
2021/12/16 04:32:07;;;;;;;10.73;9.00;;;;;;;2.81;93.49;98298.22;5052091;28;20210;-71
2021/12/16 04:34:33;;;;;;;11.40;8.47;;;;;;;2.78;94.01;98293.13;5045034;28;20289;-70
2021/12/16 04:37:01;;;;;;;10.90;8.87;;;;;;;2.75;94.41;98295.84;5038986;28;20273;-70
2021/12/16 04:39:31;;;;;;;10.17;8.17;;;;;;;2.73;93.97;98292.41;5035675;28;20212;-71
2021/12/16 04:41:58;;;;;;;10.63;7.90;;;;;;;2.77;93.57;98295.78;5037255;28;20250;-70
2021/12/16 04:44:26;;;;;;;12.07;9.13;;;;;;;2.72;94.02;98293.34;5036822;28;20210;-72
2021/12/16 04:46:54;;;;;;;8.73;7.63;;;;;;;2.79;94.09;98300.06;5037055;28;20207;-71
2021/12/16 04:49:22;;;;;;;8.80;7.63;;;;;;;2.86;95.02;98301.53;5030313;28;20231;-69
2021/12/16 04:51:51;;;;;;;9.37;8.00;;;;;;;2.82;93.91;98310.38;5035089;28;20229;-70
2021/12/16 04:54:19;;;;;;;8.47;7.40;;;;;;;2.83;94.39;98311.25;5036457;28;20302;-71
2021/12/16 04:56:47;;;;;;;8.63;7.53;;;;;;;2.86;93.80;98322.44;5036751;28;20204;-72
2021/12/16 04:59:16;;;;;;;7.87;6.90;;;;;;;2.81;93.08;98319.13;5031561;28;20211;-72
2021/12/16 05:01:45;;;;;;;7.37;6.53;;;;;;;2.68;92.45;98317.88;5030208;28;20219;-70
2021/12/16 05:04:12;;;;;;;7.60;6.50;;;;;;;2.60;93.24;98325.09;5021239;28;20206;-70
2021/12/16 05:06:40;;;;;;;8.70;6.83;;;;;;;2.62;93.74;98328.53;5036794;28;20224;-70
2021/12/16 05:09:08;;;;;;;8.07;6.90;;;;;;;2.72;94.37;98318.59;5032988;28;20576;-71
2021/12/16 05:11:36;;;;;;;8.57;7.10;;;;;;;2.77;93.94;98321.91;5019967;28;20692;-70
2021/12/16 05:14:02;;;;;;;9.03;7.37;;;;;;;2.78;95.26;98324.47;5033938;28;20242;-70
2021/12/16 05:16:29;;;;;;;9.67;8.13;;;;;;;2.70;93.79;98325.63;5037044;28;20190;-71
2021/12/16 05:18:56;;;;;;;10.80;8.60;;;;;;;2.66;94.47;98340.56;5032794;28;20218;-71
2021/12/16 05:24:25;;;;;;;11.13;8.57;;;;;;;2.63;94.78;98345.88;5033853;28;20419;-71
2021/12/16 05:26:53;;;;;;;10.00;8.37;;;;;;;2.64;94.09;98347.59;5016209;28;20631;-72
2021/12/16 05:29:20;;;;;;;10.80;8.63;;;;;;;2.62;94.18;98341.59;5030976;28;20246;-70
2021/12/16 05:31:46;;;;;;;11.37;9.27;;;;;;;2.65;93.40;98349.31;5028557;28;20214;-71
2021/12/16 05:34:13;;;;;;;9.97;8.17;;;;;;;2.55;93.48;98357.53;5034446;28;20242;-71
2021/12/16 05:36:40;;;;;;;11.97;8.73;;;;;;;2.55;93.76;98363.56;5030392;28;20210;-72
2021/12/16 05:39:09;;;;;;;9.40;8.00;;;;;;;2.51;93.59;98356.78;5036808;28;20909;-70
2021/12/16 05:41:36;;;;;;;11.17;8.77;;;;;;;2.62;94.09;98362.50;5024584;28;20208;-70
2021/12/16 05:44:03;;;;;;;10.40;8.27;;;;;;;2.65;94.14;98370.22;5032449;28;20214;-69
2021/12/16 05:46:30;;;;;;;11.53;9.33;;;;;;;2.59;93.54;98373.00;5045857;28;20204;-70
2021/12/16 05:48:59;;;;;;;11.97;9.47;;;;;;;2.59;93.60;98369.56;5037541;28;20199;-72
2021/12/16 05:51:30;;;;;;;11.20;9.07;;;;;;;2.65;93.44;98375.44;5027083;28;20229;-71
2021/12/16 05:53:58;;;;;;;11.53;9.33;;;;;;;2.67;93.60;98373.63;5036897;28;20214;-70
2021/12/16 05:56:25;;;;;;;11.70;8.33;;;;;;;2.64;92.59;98383.31;5036695;28;20535;-70
2021/12/16 05:58:52;;;;;;;11.17;8.83;;;;;;;2.71;93.31;98382.19;5037327;28;20203;-70
2021/12/16 06:01:22;;;;;;;10.90;9.47;;;;;;;2.71;92.70;98376.97;5035642;28;20302;-72
2021/12/16 06:03:49;;;;;;;11.43;9.10;;;;;;;2.70;93.39;98393.53;5036003;28;20211;-70
2021/12/16 06:06:16;;;;;;;10.90;9.23;;;;;;;2.68;92.74;98396.22;5030491;28;20230;-72
2021/12/16 06:08:44;;;;;;;12.00;9.10;;;;;;;2.60;92.83;98398.22;5036830;28;20218;-70
2021/12/16 06:11:17;;;;;;;11.80;9.10;;;;;;;2.60;93.40;98408.69;5032707;28;20233;-70
2021/12/16 06:13:59;;;;;;;10.67;9.20;;;;;;;2.63;93.33;98403.34;5027282;28;20242;-72
2021/12/16 06:27:29;;;;;;;11.27;9.40;;;;;;;2.55;93.20;98409.75;5034635;28;20214;-70
2021/12/16 06:29:58;;;;;;;9.43;8.37;;;;;;;2.56;94.00;98401.00;5030016;28;20544;-69
2021/12/16 06:32:25;;;;;;;10.83;8.60;;;;;;;2.56;94.08;98412.28;5032662;28;20211;-70
2021/12/16 06:34:53;;;;;;;11.37;9.17;;;;;;;2.55;93.72;98409.75;5016720;28;20218;-70
2021/12/16 06:37:19;;;;;;;12.13;9.10;;;;;;;2.60;93.41;98408.69;5017026;28;20210;-72
2021/12/16 06:39:46;;;;;;;10.77;8.77;;;;;;;2.60;92.98;98402.59;5028469;28;20210;-71
2021/12/16 06:42:13;;;;;;;11.20;9.30;;;;;;;2.55;93.58;98405.34;5021512;28;20207;-71
2021/12/16 06:44:43;;;;;;;10.00;8.73;;;;;;;2.66;93.33;98408.47;5038276;28;20205;-71
2021/12/16 06:47:17;;;;;;;10.43;8.73;;;;;;;2.63;93.08;98403.34;5033851;28;20607;-72
2021/12/16 06:49:47;;;;;;;10.73;8.77;;;;;;;2.67;92.69;98407.56;5042616;28;20219;-71
2021/12/16 06:52:16;;;;;;;11.90;9.67;;;;;;;2.60;92.67;98408.69;5045408;28;20221;-70
2021/12/16 06:54:57;;;;;;;9.80;8.80;;;;;;;2.58;92.43;98413.13;5046942;28;20211;-70
2021/12/16 06:57:33;;;;;;;9.93;8.57;;;;;;;2.69;92.78;98415.38;5046637;28;20221;-69
2021/12/16 07:00:08;;;;;;;11.17;9.10;;;;;;;2.66;92.62;98418.91;5042520;28;20187;-70
2021/12/16 07:02:54;;;;;;;9.80;8.57;;;;;;;2.65;92.91;98430.28;5046719;28;20214;-71
2021/12/16 07:05:23;;;;;;;9.43;8.43;;;;;;;2.73;93.39;98420.41;5038821;28;20222;-73
2021/12/16 07:07:50;;;;;;;9.13;7.83;;;;;;;2.65;92.95;98426.81;5038129;28;20211;-71
2021/12/16 07:10:18;;;;;;;11.17;8.97;;;;;;;2.72;94.09;98421.34;5037458;28;20228;-70
2021/12/16 07:12:48;;;;;;;9.73;8.73;;;;;;;2.71;93.69;98427.47;5074062;28;20201;-71
2021/12/16 07:15:18;;;;;;;10.37;8.27;;;;;;;2.76;92.48;98430.78;5068404;28;20236;-71
2021/12/16 07:17:47;;;;;;;9.63;8.63;;;;;;;2.76;93.89;98424.72;5033609;28;20207;-69
2021/12/16 07:20:16;;;;;;;10.07;9.03;;;;;;;2.76;92.88;98432.53;5041968;28;20682;-72
2021/12/16 07:22:42;;;;;;;10.73;9.23;;;;;;;2.85;93.38;98438.31;5030058;28;20214;-71
2021/12/16 07:25:09;;;;;;;10.23;8.63;;;;;;;2.85;93.20;98435.69;5031399;28;20209;-71
2021/12/16 07:27:36;;;;;;;9.17;8.27;;;;;;;2.83;93.02;98445.34;5043126;28;20226;-71
2021/12/16 07:30:05;;;;;;;9.70;8.67;;;;;;;2.82;93.53;98434.94;5042790;28;20570;-71
2021/12/16 07:32:31;;;;;;;9.33;8.43;;;;;;;2.91;93.89;98437.22;5049412;28;20227;-70
2021/12/16 07:34:59;;;;;;;11.70;9.17;;;;;;;2.99;94.38;98443.06;5025795;28;20207;-72
2021/12/16 07:37:26;;;;;;;9.70;8.70;;;;;;;3.07;93.78;98453.25;5044073;28;20221;-72
2021/12/16 07:39:52;;;;;;;9.40;8.30;;;;;;;3.07;93.64;98448.88;5031783;28;20218;-70
2021/12/16 07:42:26;;;;;;;10.03;8.47;;;;;;;3.03;93.45;98447.28;5043796;28;20234;-71
2021/12/16 07:44:52;;;;;;;9.37;8.27;;;;;;;2.98;92.71;98452.66;5029296;28;20199;-69
2021/12/16 07:47:19;;;;;;;8.43;7.23;;;;;;;2.92;91.73;98455.47;5034022;28;20210;-70
2021/12/16 07:49:45;;;;;;;8.13;7.33;;;;;;;3.03;92.31;98457.72;5029504;28;20210;-71
2021/12/16 07:52:17;;;;;;;7.60;6.90;;;;;;;2.95;92.66;98457.13;5031292;28;20535;-69
2021/12/16 07:54:43;;;;;;;6.70;6.10;;;;;;;2.97;91.61;98460.56;5031119;28;20215;-72
2021/12/16 07:57:10;;;;;;;7.23;6.53;;;;;;;2.94;92.56;98451.03;5042002;28;20215;-70
2021/12/16 07:59:37;;;;;;;7.43;6.80;;;;;;;2.94;92.69;98448.44;5042572;28;20647;-70
2021/12/16 08:02:07;;;;;;;7.60;6.90;;;;;;;2.98;92.24;98447.41;5038658;28;20198;-68
2021/12/16 08:04:39;;;;;;;7.03;6.30;;;;;;;3.03;92.44;98451.66;5041944;28;20298;-70
2021/12/16 08:07:07;;;;;;;7.70;7.00;;;;;;;3.02;92.11;98453.41;5023880;28;20272;-70
2021/12/16 08:09:37;;;;;;;8.37;7.10;;;;;;;2.98;92.60;98462.25;5028114;28;20211;-71
2021/12/16 08:12:05;;;;;;;8.70;7.80;;;;;;;2.98;92.14;98468.31;5043043;28;20225;-69
2021/12/16 08:14:32;;;;;;;8.60;7.63;;;;;;;2.98;92.48;98468.31;5035545;28;20207;-70
2021/12/16 08:16:58;;;;;;;8.67;7.63;;;;;;;2.93;93.26;98465.03;5045192;28;20223;-70
2021/12/16 08:19:25;;;;;;;8.43;7.53;;;;;;;2.94;92.67;98458.88;5040404;28;20219;-71
2021/12/16 08:21:51;;;;;;;8.13;7.33;;;;;;;2.94;92.64;98458.88;5036249;28;20211;-69
2021/12/16 08:24:18;;;;;;;9.07;8.13;;;;;;;2.98;92.83;98465.72;5025929;28;20234;-69
2021/12/16 08:26:47;;;;;;;8.23;7.50;;;;;;;3.01;92.93;98463.00;5023761;28;20628;-69
2021/12/16 08:29:14;;;;;;;8.50;7.70;;;;;;;2.99;92.69;98458.72;5041310;28;20610;-68
2021/12/16 08:31:41;;;;;;;8.67;7.80;;;;;;;2.95;92.84;98459.75;5044158;28;20231;-69
2021/12/16 08:34:07;;;;;;;8.97;8.07;;;;;;;2.91;93.16;98461.59;5037652;28;20218;-70
2021/12/16 08:36:34;;;;;;;8.90;8.00;;;;;;;2.92;92.99;98468.53;5022167;28;20222;-70
2021/12/16 08:39:01;;;;;;;9.70;8.63;;;;;;;2.92;93.59;98467.69;5039396;28;20313;-70
2021/12/16 08:41:32;;;;;;;9.97;8.50;;;;;;;2.91;93.52;98469.44;5040834;28;20215;-70
2021/12/16 08:44:00;;;;;;;10.60;9.03;;;;;;;2.85;93.58;98477.50;5032443;28;20210;-70
2021/12/16 08:46:29;;;;;;;9.50;8.13;;;;;;;2.94;93.15;98482.41;5030092;28;20199;-71
2021/12/16 08:48:56;;;;;;;9.33;8.37;;;;;;;2.94;93.47;98471.94;5035340;28;20212;-69
2021/12/16 08:51:25;;;;;;;10.83;8.50;;;;;;;2.98;92.84;98472.69;5035422;28;20684;-69
2021/12/16 08:53:52;;;;;;;8.90;8.00;;;;;;;3.05;93.12;98478.59;5028273;28;20224;-69
2021/12/16 08:56:19;;;;;;;10.37;7.97;;;;;;;3.13;93.00;98474.78;5025646;28;20212;-68
2021/12/16 08:58:45;;;;;;;9.10;8.17;;;;;;;3.16;92.90;98484.28;5043983;28;20290;-70
2021/12/16 09:01:17;;;;;;;11.83;8.00;;;;;;;3.05;92.33;98479.44;5046683;28;20218;-68
2021/12/16 09:03:43;;;;;;;10.30;7.27;;;;;;;3.18;93.00;98485.09;5049324;28;20206;-69
2021/12/16 09:06:10;;;;;;;9.47;7.90;;;;;;;3.11;92.84;98488.84;5048902;28;20235;-69
2021/12/16 09:08:37;;;;;;;9.73;8.57;;;;;;;3.17;92.48;98486.00;5042321;28;20196;-70
2021/12/16 09:11:08;;;;;;;8.67;7.77;;;;;;;3.15;92.19;98486.06;5044079;28;20231;-69
2021/12/16 09:13:36;;;;;;;8.23;7.43;;;;;;;3.17;92.10;98488.63;5042963;28;20222;-71
2021/12/16 09:16:05;;;;;;;8.77;7.87;;;;;;;3.23;92.10;98480.56;5029678;28;20230;-70
2021/12/16 09:18:39;;;;;;;8.80;7.67;;;;;;;3.17;91.40;98488.63;5042972;28;20222;-72
2021/12/16 09:21:06;;;;;;;8.17;7.17;;;;;;;3.13;92.09;98487.00;5031120;28;20302;-71
2021/12/16 09:23:33;;;;;;;7.97;7.17;;;;;;;3.17;91.69;98483.38;5046720;28;20204;-70
2021/12/16 09:25:59;;;;;;;7.57;6.47;;;;;;;3.23;90.97;98488.41;5034504;28;20203;-70
2021/12/16 09:28:27;;;;;;;9.60;7.07;;;;;;;3.23;90.75;98494.47;5049037;28;20206;-70
2021/12/16 09:30:54;;;;;;;8.27;7.13;;;;;;;3.23;91.27;98507.56;5040396;28;20235;-71
2021/12/16 09:33:22;;;;;;;7.93;6.70;;;;;;;3.26;91.21;98498.78;5054500;28;20207;-70
2021/12/16 09:35:53;;;;;;;9.47;7.43;;;;;;;3.28;91.45;98503.03;5053401;28;20214;-69
2021/12/16 09:38:21;;;;;;;10.07;7.40;;;;;;;3.33;91.11;98515.97;5034422;28;20219;-69
2021/12/16 09:40:52;;;;;;;7.50;6.70;;;;;;;3.34;90.55;98517.66;5035096;28;20209;-70
2021/12/16 09:43:20;;;;;;;7.83;7.03;;;;;;;3.36;91.00;98515.84;5034368;28;20214;-70
2021/12/16 09:45:47;;;;;;;7.40;6.60;;;;;;;3.28;90.37;98523.94;5028210;28;20199;-70
2021/12/16 09:48:13;;;;;;;6.77;5.50;;;;;;;3.24;90.10;98521.47;5043526;28;20218;-71
2021/12/16 09:50:40;;;;;;;7.10;6.40;;;;;;;3.25;90.42;98533.66;5044916;28;20237;-70
2021/12/16 09:53:09;;;;;;;8.17;6.43;;;;;;;3.26;90.14;98530.16;5044411;28;20215;-70
2021/12/16 09:55:35;;;;;;;6.43;5.83;;;;;;;3.28;90.09;98537.03;5046781;28;20232;-68
2021/12/16 09:58:04;;;;;;;8.20;6.00;;;;;;;3.25;90.39;98534.53;5043573;28;20203;-69
2021/12/16 10:00:33;;;;;;;6.13;5.53;;;;;;;3.24;89.62;98531.94;5044302;28;20211;-70
2021/12/16 10:03:02;;;;;;;7.30;6.03;;;;;;;3.24;88.97;98537.16;5043495;28;20282;-70
2021/12/16 10:05:29;;;;;;;6.93;5.33;;;;;;;3.26;88.47;98528.38;5039076;28;20234;-70
2021/12/16 10:07:56;;;;;;;6.07;5.23;;;;;;;3.27;89.02;98526.59;5040138;28;20294;-70
2021/12/16 10:10:26;;;;;;;6.50;5.33;;;;;;;3.30;89.12;98527.34;5038204;28;20207;-70
2021/12/16 10:12:55;;;;;;;6.43;5.30;;;;;;;3.34;88.77;98523.72;5040164;28;20211;-70
2021/12/16 10:18:10;;;;;;;5.30;4.83;;;;;;;3.39;87.92;98520.97;5025653;28;20215;-69
2021/12/16 10:20:39;;;;;;;4.93;4.43;;;;;;;3.43;87.92;98527.81;5039552;28;20217;-69
2021/12/16 10:23:08;;;;;;;5.13;4.63;;;;;;;3.42;87.74;98515.63;5048438;28;20242;-70
2021/12/16 10:25:38;;;;;;;6.60;5.90;;;;;;;3.48;87.51;98513.66;5037108;28;20287;-70
2021/12/16 10:28:10;;;;;;;5.57;4.93;;;;;;;3.51;87.23;98508.31;5049012;28;20203;-71
2021/12/16 10:30:44;;;;;;;5.70;4.47;;;;;;;3.58;87.55;98498.47;5039095;28;20294;-70
2021/12/16 10:33:13;;;;;;;5.20;4.70;;;;;;;3.47;86.80;98498.03;5042881;28;20225;-72
2021/12/16 10:35:40;;;;;;;4.43;4.03;;;;;;;3.53;86.46;98484.72;5048018;28;20211;-72
2021/12/16 10:38:08;;;;;;;4.03;3.73;;;;;;;3.50;86.88;98488.31;5036222;28;20211;-71
2021/12/16 10:40:40;;;;;;;4.03;3.73;;;;;;;3.64;86.84;98489.56;5042760;28;20211;-71
2021/12/16 10:43:09;;;;;;;4.00;3.60;;;;;;;3.69;86.04;98498.09;5038241;28;20216;-72
2021/12/16 10:45:41;;;;;;;4.00;3.70;;;;;;;3.70;85.72;98505.03;5041761;28;20632;-72
2021/12/16 10:48:23;;;;;;;4.70;3.73;;;;;;;3.74;85.47;98509.25;5040122;28;20207;-70
2021/12/16 10:51:04;;;;;;;4.07;3.73;;;;;;;3.77;85.54;98511.75;5029167;28;20544;-71
2021/12/16 10:53:51;;;;;;;4.33;3.87;;;;;;;3.84;85.18;98508.84;5040876;28;20218;-70
2021/12/16 10:56:20;;;;;;;4.07;3.67;;;;;;;3.93;85.79;98497.22;5033100;28;20618;-70
2021/12/16 10:58:50;;;;;;;4.30;3.90;;;;;;;3.84;85.30;98503.63;5043357;28;20211;-70
2021/12/16 11:01:37;;;;;;;4.10;3.70;;;;;;;3.84;84.69;98497.53;5043837;28;20634;-70
2021/12/16 11:04:08;;;;;;;5.43;4.00;;;;;;;3.87;85.23;98500.88;5051981;28;20199;-72
2021/12/16 11:06:37;;;;;;;4.00;3.60;;;;;;;3.93;84.85;98487.56;5048394;28;20243;-71
2021/12/16 11:09:28;;;;;;;3.37;3.07;;;;;;;3.92;84.69;98491.13;5055127;28;20208;-70
2021/12/16 11:12:08;;;;;;;3.87;3.40;;;;;;;3.84;84.61;98480.06;5037974;28;20212;-71
2021/12/16 11:14:36;;;;;;;3.70;3.40;;;;;;;3.88;85.37;98484.28;5040977;28;20208;-69
2021/12/16 11:17:05;;;;;;;4.00;3.70;;;;;;;3.84;84.27;98482.69;5040274;28;20200;-70
2021/12/16 11:19:39;;;;;;;3.60;3.30;;;;;;;3.91;83.81;98468.47;5027741;28;20291;-71
2021/12/16 11:22:07;;;;;;;3.70;3.33;;;;;;;3.88;83.87;98471.19;5024462;28;20216;-70
2021/12/16 11:24:33;;;;;;;3.57;3.27;;;;;;;3.91;84.35;98473.69;5033381;28;20507;-71
2021/12/16 11:27:19;;;;;;;3.80;3.50;;;;;;;3.86;84.69;98469.56;5055249;28;20200;-69
2021/12/16 11:29:46;;;;;;;3.70;3.40;;;;;;;3.85;84.62;98466.06;5049695;28;20215;-72
2021/12/16 11:32:38;;;;;;;4.13;3.83;;;;;;;3.86;84.64;98470.38;5047382;28;20227;-75
2021/12/16 11:35:24;;;;;;;3.90;3.60;;;;;;;3.89;84.28;98475.53;5043845;28;20195;-70
2021/12/16 11:37:51;;;;;;;4.73;3.80;;;;;;;3.96;85.02;98476.16;5044879;28;20208;-71
2021/12/16 11:40:18;;;;;;;4.00;3.70;;;;;;;3.92;84.59;98472.78;5040616;28;20616;-71
2021/12/16 11:42:58;;;;;;;4.57;4.17;;;;;;;3.88;84.47;98473.81;5039839;28;20247;-70
2021/12/16 11:45:31;;;;;;;4.47;3.40;;;;;;;3.94;85.16;98476.19;5031709;28;20200;-72
2021/12/16 11:47:58;;;;;;;3.80;3.50;;;;;;;4.06;84.86;98471.41;5048865;28;20204;-72
2021/12/16 11:50:35;;;;;;;3.57;3.27;;;;;;;4.01;84.12;98464.56;5050116;28;20207;-70
2021/12/16 11:53:01;;;;;;;4.23;3.83;;;;;;;4.00;83.46;98462.03;5051576;28;20219;-68
2021/12/16 11:55:28;;;;;;;4.00;3.60;;;;;;;4.00;84.04;98468.09;5040694;28;20223;-72
2021/12/16 11:58:01;;;;;;;3.67;3.37;;;;;;;4.11;84.38;98459.00;5050726;28;20207;-72
2021/12/16 12:00:30;;;;;;;4.37;3.80;;;;;;;4.14;83.51;98453.66;5050186;28;20212;-71
2021/12/16 12:03:00;;;;;;;4.20;3.80;;;;;;;4.22;83.74;98451.56;5050954;28;20218;-70
2021/12/16 12:05:29;;;;;;;3.83;3.30;;;;;;;4.29;82.47;98458.25;5040389;28;20259;-70
2021/12/16 12:07:59;;;;;;;4.03;3.63;;;;;;;4.42;83.04;98451.66;5041471;28;20213;-73
2021/12/16 12:10:40;;;;;;;4.50;4.10;;;;;;;4.49;82.62;98459.22;5035653;28;20214;-71
2021/12/16 12:13:09;;;;;;;4.40;4.00;;;;;;;4.58;82.61;98460.59;5043462;28;20216;-73
2021/12/16 12:15:52;;;;;;;4.13;3.80;;;;;;;4.70;81.99;98460.09;5043010;28;20219;-74
2021/12/16 12:18:31;;;;;;;4.50;4.00;;;;;;;4.61;81.54;98457.84;5031517;28;20199;-70
2021/12/16 12:21:15;;;;;;;7.03;4.20;;;;;;;4.58;81.87;98465.81;5047460;28;20215;-72
2021/12/16 12:23:42;;;;;;;3.73;3.43;;;;;;;4.61;80.78;98465.69;5044007;28;20219;-70
2021/12/16 12:26:12;;;;;;;4.33;3.93;;;;;;;4.56;81.60;98467.66;5046825;28;20211;-72
2021/12/16 12:28:40;;;;;;;4.37;3.97;;;;;;;4.45;81.97;98462.84;5047679;28;20221;-72
2021/12/16 12:31:07;;;;;;;4.50;4.10;;;;;;;4.36;82.00;98460.59;5041221;28;20208;-69
2021/12/16 12:33:33;;;;;;;5.40;4.20;;;;;;;4.48;82.30;98461.88;5056017;28;20231;-72
2021/12/16 12:36:01;;;;;;;5.47;4.03;;;;;;;4.43;82.40;98453.34;5052099;28;20240;-72
2021/12/16 12:38:28;;;;;;;3.77;3.47;;;;;;;4.50;82.48;98460.03;5056041;28;20187;-69
2021/12/16 12:40:56;;;;;;;4.10;3.70;;;;;;;4.46;81.78;98474.19;5053762;28;20630;-73
2021/12/16 12:43:22;;;;;;;3.80;3.50;;;;;;;4.60;81.31;98464.00;5049760;28;20244;-70
2021/12/16 12:45:50;;;;;;;3.90;3.50;;;;;;;4.54;81.37;98461.63;5049558;28;20203;-69
2021/12/16 12:48:19;;;;;;;3.90;3.60;;;;;;;4.42;81.15;98475.22;5039280;28;20207;-70
2021/12/16 12:50:48;;;;;;;3.87;3.57;;;;;;;4.51;81.27;98459.13;5025144;28;20201;-70
2021/12/16 12:53:17;;;;;;;3.67;3.37;;;;;;;4.53;81.44;98446.84;5044190;28;20231;-73
2021/12/16 12:55:46;;;;;;;3.80;3.50;;;;;;;4.55;81.10;98445.00;5037293;28;20224;-70
2021/12/16 12:58:14;;;;;;;3.97;3.57;;;;;;;4.63;80.38;98448.16;5029365;28;20520;-70
2021/12/16 13:00:45;;;;;;;3.73;3.30;;;;;;;4.69;80.51;98453.16;5038230;28;20535;-72
2021/12/16 13:03:17;;;;;;;3.57;3.27;;;;;;;4.62;80.14;98445.59;5035272;28;20304;-71
2021/12/16 13:05:51;;;;;;;4.10;3.70;;;;;;;4.71;80.54;98453.91;5034673;28;20267;-72
2021/12/16 13:08:19;;;;;;;4.40;4.00;;;;;;;4.69;80.22;98453.16;5042379;28;20200;-69
2021/12/16 13:10:48;;;;;;;3.80;3.50;;;;;;;4.69;81.18;98457.53;5048571;28;20200;-72
2021/12/16 13:13:37;;;;;;;4.07;3.67;;;;;;;4.56;80.58;98445.84;5039122;28;20238;-71
2021/12/16 13:24:51;;;;;;;4.40;3.60;;;;;;;4.46;80.45;98446.19;5033249;28;20293;-69
2021/12/16 13:27:32;;;;;;;3.70;3.40;;;;;;;4.54;79.76;98438.03;5025551;28;20236;-71
2021/12/16 13:30:16;;;;;;;3.50;3.20;;;;;;;4.55;79.98;98436.28;5039460;28;20203;-71
2021/12/16 13:32:46;;;;;;;3.67;3.37;;;;;;;4.58;81.15;98437.00;5023144;28;20270;-72
2021/12/16 13:35:32;;;;;;;3.90;3.60;;;;;;;4.58;80.26;98429.16;5034728;28;20647;-70
2021/12/16 13:38:02;;;;;;;3.50;3.23;;;;;;;4.52;80.23;98429.41;5044837;28;20192;-69
2021/12/16 13:40:32;;;;;;;3.47;3.17;;;;;;;4.56;79.77;98427.50;5047045;28;20211;-68
2021/12/16 13:43:01;;;;;;;3.60;3.30;;;;;;;4.60;80.23;98429.09;5030321;28;20193;-68
2021/12/16 13:45:34;;;;;;;3.90;3.50;;;;;;;4.61;79.54;98426.38;5041999;28;20214;-69
2021/12/16 13:48:20;;;;;;;3.50;3.20;;;;;;;4.60;79.16;98424.72;5044568;28;20196;-69
2021/12/16 14:03:08;;;;;;;3.50;3.20;;;;;;;4.60;78.36;98435.19;5034139;28;20670;-72
2021/12/16 14:06:10;;;;;;;3.40;3.10;;;;;;;4.64;78.52;98447.22;5034205;28;20237;-69